Somerton, AZ (85350)

9:14 PM MST on September 04, 2015 (GMT -0700)
Livingston Ranch | | Change Station
CLOSE
Current Station
Personal Weather Station
Location: Yuma, AZ
Elevation: 115 ft
Nearby Weather Stations

Elev 115 ft 32.66 °N, 114.66 °W | Updated 9 minutes ago

Clear
Clear
88.2 °F
Feels Like 90 °F
N
4.2
Wind Variable Wind from WNW

Today
High -- | Low -- °F
--% Chance of Precip.
Yesterday
High -- | Low -- °F
Precip. -- in
6:15 AM 6:59 PM
Waning Gibbous, 53% visible
Pressure 29.72 in
Visibility 10.0 miles
Clouds Clear
Heat Index 90 °F
Dew Point 65 °F
Humidity 47%
Rainfall 0.00 in
Snow Depth Not available.
UV 0 out of 12
Pollen 7.50 out of 12
Air Quality Not available.
Flu Activity Not available.
METAR KNYL 050357Z AUTO 17018KT 10SM CLR 32/19 A2973 RMK AO2 SLP064 T03170189
Pressure 29.72 in
Visibility 10.0 miles
Clouds Clear
Heat Index 90 °F
Dew Point 65 °F
Humidity 47%
Rainfall 0.00 in
Snow Depth Not available.
UV 0 out of 12
Pollen 7.50 out of 12
Air Quality Not available.
Flu Activity Not available.
METAR KNYL 050357Z AUTO 17018KT 10SM CLR 32/19 A2973 RMK AO2 SLP064 T03170189

10-Day Weather Forecast

×

Almanac

Astronomy

Sep. 04, 2015 Rise Set
Actual Time
Civil Twilight
Nautical Twilight
Astronomical Twilight
Moon
Length of Visible Light
Length of Day
Tomorrow will be .
, % of the Moon is Illuminated

Today's Extremes

State Highs State Lows

Community

WunderPhotos

Upload Photos

1,852,419 photos uploaded!

WunderBlogs® & News

Nearby

Air Quality

  Air Quality AQ Index Pollutant
Not available.

Snow Depth

Station Depth Elevation

Earthquake Activity

City Distance Mag. Time & Date
Minimum magnitude displayed is 2.5.

Coastal Water Temperatures

Place Temperature

Stations

Nearby Weather Stations

Station Location Temp. Windchill Dew Point Humidity Wind Precip. Elev Updated Type